sensor_id;sensor_type;location;lat;lon;timestamp;temperature;humidity
5868;DHT22;2960;49.142;7.768;2023-05-07T00:01:51;15.90;58.30
5868;DHT22;2960;49.142;7.768;2023-05-07T00:04:19;15.90;58.30
5868;DHT22;2960;49.142;7.768;2023-05-07T00:06:46;15.80;58.40
5868;DHT22;2960;49.142;7.768;2023-05-07T00:09:13;15.70;58.40
5868;DHT22;2960;49.142;7.768;2023-05-07T00:11:42;15.70;58.40
5868;DHT22;2960;49.142;7.768;2023-05-07T00:14:09;15.70;58.50
5868;DHT22;2960;49.142;7.768;2023-05-07T00:16:36;15.70;58.60
5868;DHT22;2960;49.142;7.768;2023-05-07T00:19:08;15.70;58.70
5868;DHT22;2960;49.142;7.768;2023-05-07T00:21:35;15.60;58.70
5868;DHT22;2960;49.142;7.768;2023-05-07T00:24:02;15.60;58.80
5868;DHT22;2960;49.142;7.768;2023-05-07T00:26:29;15.60;58.80
5868;DHT22;2960;49.142;7.768;2023-05-07T00:28:56;15.60;58.80
5868;DHT22;2960;49.142;7.768;2023-05-07T00:31:23;15.60;58.80
5868;DHT22;2960;49.142;7.768;2023-05-07T00:33:51;15.50;58.80
5868;DHT22;2960;49.142;7.768;2023-05-07T00:36:19;15.50;58.90
5868;DHT22;2960;49.142;7.768;2023-05-07T00:38:46;15.50;58.90
5868;DHT22;2960;49.142;7.768;2023-05-07T00:41:13;15.50;58.90
5868;DHT22;2960;49.142;7.768;2023-05-07T00:43:40;15.40;58.90
5868;DHT22;2960;49.142;7.768;2023-05-07T00:46:07;15.40;59.00
5868;DHT22;2960;49.142;7.768;2023-05-07T00:48:35;15.40;59.10
5868;DHT22;2960;49.142;7.768;2023-05-07T00:51:03;15.40;59.10
5868;DHT22;2960;49.142;7.768;2023-05-07T00:53:31;15.30;59.10
5868;DHT22;2960;49.142;7.768;2023-05-07T00:55:58;15.30;59.20
5868;DHT22;2960;49.142;7.768;2023-05-07T00:58:26;15.30;59.30
5868;DHT22;2960;49.142;7.768;2023-05-07T01:00:53;15.30;59.30
5868;DHT22;2960;49.142;7.768;2023-05-07T01:03:21;15.20;59.20
5868;DHT22;2960;49.142;7.768;2023-05-07T01:05:48;15.20;59.30
5868;DHT22;2960;49.142;7.768;2023-05-07T01:08:18;15.20;59.40
5868;DHT22;2960;49.142;7.768;2023-05-07T01:10:49;15.10;60.00
5868;DHT22;2960;49.142;7.768;2023-05-07T01:13:17;15.10;59.50
5868;DHT22;2960;49.142;7.768;2023-05-07T01:15:46;15.10;59.60
5868;DHT22;2960;49.142;7.768;2023-05-07T01:18:13;15.00;59.50
5868;DHT22;2960;49.142;7.768;2023-05-07T01:20:41;15.00;60.30
5868;DHT22;2960;49.142;7.768;2023-05-07T01:23:11;15.00;59.70
5868;DHT22;2960;49.142;7.768;2023-05-07T01:25:38;15.00;59.70
5868;DHT22;2960;49.142;7.768;2023-05-07T01:28:06;14.90;59.60
5868;DHT22;2960;49.142;7.768;2023-05-07T01:30:36;14.90;59.60
5868;DHT22;2960;49.142;7.768;2023-05-07T01:33:06;15.00;59.70
5868;DHT22;2960;49.142;7.768;2023-05-07T01:35:38;14.90;59.60
5868;DHT22;2960;49.142;7.768;2023-05-07T01:38:09;14.90;59.70
5868;DHT22;2960;49.142;7.768;2023-05-07T01:40:36;14.80;59.70
5868;DHT22;2960;49.142;7.768;2023-05-07T01:43:04;14.80;59.80
5868;DHT22;2960;49.142;7.768;2023-05-07T01:45:34;14.80;59.90
5868;DHT22;2960;49.142;7.768;2023-05-07T01:48:02;14.70;59.90
5868;DHT22;2960;49.142;7.768;2023-05-07T01:50:30;14.70;60.00
5868;DHT22;2960;49.142;7.768;2023-05-07T01:52:58;14.70;60.00
5868;DHT22;2960;49.142;7.768;2023-05-07T01:55:27;14.70;60.10
5868;DHT22;2960;49.142;7.768;2023-05-07T01:57:54;14.60;60.00
5868;DHT22;2960;49.142;7.768;2023-05-07T02:00:22;14.60;60.00
5868;DHT22;2960;49.142;7.768;2023-05-07T02:02:49;14.60;60.20
5868;DHT22;2960;49.142;7.768;2023-05-07T02:05:18;14.60;60.20
5868;DHT22;2960;49.142;7.768;2023-05-07T02:07:45;14.50;60.20
5868;DHT22;2960;49.142;7.768;2023-05-07T02:10:12;14.40;60.20
5868;DHT22;2960;49.142;7.768;2023-05-07T02:12:40;14.40;60.30
5868;DHT22;2960;49.142;7.768;2023-05-07T02:15:08;14.40;60.40
5868;DHT22;2960;49.142;7.768;2023-05-07T02:17:40;14.40;60.50
5868;DHT22;2960;49.142;7.768;2023-05-07T02:20:25;14.30;60.50
5868;DHT22;2960;49.142;7.768;2023-05-07T02:22:53;14.30;60.50
5868;DHT22;2960;49.142;7.768;2023-05-07T02:25:20;14.30;60.60
5868;DHT22;2960;49.142;7.768;2023-05-07T02:27:48;14.30;60.60
5868;DHT22;2960;49.142;7.768;2023-05-07T02:30:16;14.30;60.50
5868;DHT22;2960;49.142;7.768;2023-05-07T02:32:43;14.20;61.30
5868;DHT22;2960;49.142;7.768;2023-05-07T02:35:10;14.20;60.60
5868;DHT22;2960;49.142;7.768;2023-05-07T02:37:38;14.20;60.80
5868;DHT22;2960;49.142;7.768;2023-05-07T02:40:06;14.20;60.80
5868;DHT22;2960;49.142;7.768;2023-05-07T02:42:34;14.10;60.80
5868;DHT22;2960;49.142;7.768;2023-05-07T02:45:02;14.10;60.80
5868;DHT22;2960;49.142;7.768;2023-05-07T02:47:30;14.10;60.80
5868;DHT22;2960;49.142;7.768;2023-05-07T02:49:57;14.10;60.90
5868;DHT22;2960;49.142;7.768;2023-05-07T02:52:24;14.10;60.80
5868;DHT22;2960;49.142;7.768;2023-05-07T02:54:51;14.10;60.80
5868;DHT22;2960;49.142;7.768;2023-05-07T02:57:19;14.00;60.80
5868;DHT22;2960;49.142;7.768;2023-05-07T02:59:48;14.00;60.80
5868;DHT22;2960;49.142;7.768;2023-05-07T03:02:17;14.00;60.90
5868;DHT22;2960;49.142;7.768;2023-05-07T03:04:44;14.00;60.80
5868;DHT22;2960;49.142;7.768;2023-05-07T03:07:11;14.00;60.80
5868;DHT22;2960;49.142;7.768;2023-05-07T03:09:38;14.00;60.80
5868;DHT22;2960;49.142;7.768;2023-05-07T03:12:08;14.00;60.90
5868;DHT22;2960;49.142;7.768;2023-05-07T03:14:35;13.90;61.00
5868;DHT22;2960;49.142;7.768;2023-05-07T03:17:02;13.90;61.90
5868;DHT22;2960;49.142;7.768;2023-05-07T03:19:30;13.80;61.10
5868;DHT22;2960;49.142;7.768;2023-05-07T03:21:57;13.80;61.10
5868;DHT22;2960;49.142;7.768;2023-05-07T03:24:25;13.80;61.20
5868;DHT22;2960;49.142;7.768;2023-05-07T03:26:52;13.80;61.20
5868;DHT22;2960;49.142;7.768;2023-05-07T03:29:19;13.80;61.30
5868;DHT22;2960;49.142;7.768;2023-05-07T03:31:46;13.80;61.30
5868;DHT22;2960;49.142;7.768;2023-05-07T03:34:13;13.80;61.30
5868;DHT22;2960;49.142;7.768;2023-05-07T03:36:42;13.70;61.20
5868;DHT22;2960;49.142;7.768;2023-05-07T03:39:09;13.70;61.40
5868;DHT22;2960;49.142;7.768;2023-05-07T03:41:36;13.70;61.40
5868;DHT22;2960;49.142;7.768;2023-05-07T03:44:03;13.60;61.30
5868;DHT22;2960;49.142;7.768;2023-05-07T03:46:30;13.60;61.30
5868;DHT22;2960;49.142;7.768;2023-05-07T03:48:58;13.60;61.40
5868;DHT22;2960;49.142;7.768;2023-05-07T03:51:25;13.60;61.60
5868;DHT22;2960;49.142;7.768;2023-05-07T03:53:54;13.60;62.40
5868;DHT22;2960;49.142;7.768;2023-05-07T03:56:22;13.50;61.60
5868;DHT22;2960;49.142;7.768;2023-05-07T03:58:52;13.50;61.70
5868;DHT22;2960;49.142;7.768;2023-05-07T04:01:19;13.50;61.70
5868;DHT22;2960;49.142;7.768;2023-05-07T04:03:46;13.50;61.70
5868;DHT22;2960;49.142;7.768;2023-05-07T04:06:13;13.50;61.70
5868;DHT22;2960;49.142;7.768;2023-05-07T04:08:40;13.50;61.60
5868;DHT22;2960;49.142;7.768;2023-05-07T04:11:08;13.50;61.60
5868;DHT22;2960;49.142;7.768;2023-05-07T04:13:35;13.50;62.30
5868;DHT22;2960;49.142;7.768;2023-05-07T04:16:04;13.40;62.30
5868;DHT22;2960;49.142;7.768;2023-05-07T04:18:32;13.40;61.70
5868;DHT22;2960;49.142;7.768;2023-05-07T04:21:01;13.40;61.80
5868;DHT22;2960;49.142;7.768;2023-05-07T04:23:28;13.40;62.60
5868;DHT22;2960;49.142;7.768;2023-05-07T04:25:56;13.30;61.90
5868;DHT22;2960;49.142;7.768;2023-05-07T04:28:24;13.40;62.00
5868;DHT22;2960;49.142;7.768;2023-05-07T04:30:52;13.30;62.00
5868;DHT22;2960;49.142;7.768;2023-05-07T04:33:19;13.30;62.10
5868;DHT22;2960;49.142;7.768;2023-05-07T04:35:46;13.30;62.10
5868;DHT22;2960;49.142;7.768;2023-05-07T04:38:14;13.30;62.10
5868;DHT22;2960;49.142;7.768;2023-05-07T04:40:42;13.30;62.10
5868;DHT22;2960;49.142;7.768;2023-05-07T04:43:09;13.30;62.20
5868;DHT22;2960;49.142;7.768;2023-05-07T04:45:37;13.30;62.20
5868;DHT22;2960;49.142;7.768;2023-05-07T04:48:06;13.30;62.30
5868;DHT22;2960;49.142;7.768;2023-05-07T04:50:34;13.30;62.30
5868;DHT22;2960;49.142;7.768;2023-05-07T04:53:01;13.30;62.30
5868;DHT22;2960;49.142;7.768;2023-05-07T04:55:28;13.40;62.50
5868;DHT22;2960;49.142;7.768;2023-05-07T04:57:55;13.40;62.40
5868;DHT22;2960;49.142;7.768;2023-05-07T05:00:22;13.40;62.40
5868;DHT22;2960;49.142;7.768;2023-05-07T05:02:52;13.40;62.50
5868;DHT22;2960;49.142;7.768;2023-05-07T05:05:19;13.40;62.50
5868;DHT22;2960;49.142;7.768;2023-05-07T05:07:46;13.40;62.60
5868;DHT22;2960;49.142;7.768;2023-05-07T05:10:13;13.40;62.70
5868;DHT22;2960;49.142;7.768;2023-05-07T05:12:41;13.40;62.80
5868;DHT22;2960;49.142;7.768;2023-05-07T05:15:10;13.40;63.70
5868;DHT22;2960;49.142;7.768;2023-05-07T05:17:38;13.40;63.00
5868;DHT22;2960;49.142;7.768;2023-05-07T05:20:07;13.40;63.00
5868;DHT22;2960;49.142;7.768;2023-05-07T05:22:36;13.50;63.10
5868;DHT22;2960;49.142;7.768;2023-05-07T05:25:03;13.50;63.10
5868;DHT22;2960;49.142;7.768;2023-05-07T05:27:31;13.60;63.20
5868;DHT22;2960;49.142;7.768;2023-05-07T05:29:58;13.60;63.20
5868;DHT22;2960;49.142;7.768;2023-05-07T05:32:25;13.70;63.30
5868;DHT22;2960;49.142;7.768;2023-05-07T05:34:52;13.70;63.20
5868;DHT22;2960;49.142;7.768;2023-05-07T05:37:21;13.80;63.20
5868;DHT22;2960;49.142;7.768;2023-05-07T05:39:48;13.80;63.20
5868;DHT22;2960;49.142;7.768;2023-05-07T05:42:15;13.90;63.20
5868;DHT22;2960;49.142;7.768;2023-05-07T05:44:42;13.90;63.10
5868;DHT22;2960;49.142;7.768;2023-05-07T05:47:09;14.00;63.20
5868;DHT22;2960;49.142;7.768;2023-05-07T05:49:39;14.10;63.30
5868;DHT22;2960;49.142;7.768;2023-05-07T05:52:08;14.10;63.20
5868;DHT22;2960;49.142;7.768;2023-05-07T05:54:38;14.20;63.20
5868;DHT22;2960;49.142;7.768;2023-05-07T05:57:07;14.20;63.20
5868;DHT22;2960;49.142;7.768;2023-05-07T05:59:35;14.30;63.30
5868;DHT22;2960;49.142;7.768;2023-05-07T06:02:02;14.30;63.20
5868;DHT22;2960;49.142;7.768;2023-05-07T06:04:29;14.40;63.30
5868;DHT22;2960;49.142;7.768;2023-05-07T06:06:56;14.40;63.30
5868;DHT22;2960;49.142;7.768;2023-05-07T06:09:24;14.50;63.50
5868;DHT22;2960;49.142;7.768;2023-05-07T06:11:53;14.50;64.20
5868;DHT22;2960;49.142;7.768;2023-05-07T06:14:20;14.60;63.60
5868;DHT22;2960;49.142;7.768;2023-05-07T06:16:47;14.60;63.50
5868;DHT22;2960;49.142;7.768;2023-05-07T06:19:14;14.70;63.60
5868;DHT22;2960;49.142;7.768;2023-05-07T06:21:43;14.80;63.70
5868;DHT22;2960;49.142;7.768;2023-05-07T06:24:10;14.80;63.70
5868;DHT22;2960;49.142;7.768;2023-05-07T06:26:37;14.90;63.80
5868;DHT22;2960;49.142;7.768;2023-05-07T06:29:06;15.00;63.80
5868;DHT22;2960;49.142;7.768;2023-05-07T06:31:33;15.00;63.70
5868;DHT22;2960;49.142;7.768;2023-05-07T06:34:00;15.10;63.70
5868;DHT22;2960;49.142;7.768;2023-05-07T06:36:28;15.20;63.70
5868;DHT22;2960;49.142;7.768;2023-05-07T06:38:55;15.30;63.80
5868;DHT22;2960;49.142;7.768;2023-05-07T06:41:22;15.40;64.50
5868;DHT22;2960;49.142;7.768;2023-05-07T06:43:49;15.50;63.80
5868;DHT22;2960;49.142;7.768;2023-05-07T06:46:18;15.60;63.80
5868;DHT22;2960;49.142;7.768;2023-05-07T06:48:45;15.70;63.80
5868;DHT22;2960;49.142;7.768;2023-05-07T06:51:12;15.80;63.90
5868;DHT22;2960;49.142;7.768;2023-05-07T06:53:39;15.90;64.00
5868;DHT22;2960;49.142;7.768;2023-05-07T06:56:06;16.00;64.00
5868;DHT22;2960;49.142;7.768;2023-05-07T06:58:33;16.10;64.10
5868;DHT22;2960;49.142;7.768;2023-05-07T07:01:00;16.20;64.10
5868;DHT22;2960;49.142;7.768;2023-05-07T07:03:29;16.30;64.20
5868;DHT22;2960;49.142;7.768;2023-05-07T07:05:57;16.40;64.30
5868;DHT22;2960;49.142;7.768;2023-05-07T07:08:24;16.50;64.30
5868;DHT22;2960;49.142;7.768;2023-05-07T07:10:51;16.60;64.30
5868;DHT22;2960;49.142;7.768;2023-05-07T07:13:21;16.70;64.10
5868;DHT22;2960;49.142;7.768;2023-05-07T07:15:48;16.90;64.20
5868;DHT22;2960;49.142;7.768;2023-05-07T07:18:15;17.00;64.10
5868;DHT22;2960;49.142;7.768;2023-05-07T07:20:43;17.10;64.10
5868;DHT22;2960;49.142;7.768;2023-05-07T07:23:11;17.20;64.00
5868;DHT22;2960;49.142;7.768;2023-05-07T07:25:38;17.30;63.90
5868;DHT22;2960;49.142;7.768;2023-05-07T07:28:05;17.40;64.50
5868;DHT22;2960;49.142;7.768;2023-05-07T07:30:32;17.50;63.60
5868;DHT22;2960;49.142;7.768;2023-05-07T07:33:02;17.70;63.70
5868;DHT22;2960;49.142;7.768;2023-05-07T07:35:30;17.80;63.50
5868;DHT22;2960;49.142;7.768;2023-05-07T07:37:59;17.90;63.40
5868;DHT22;2960;49.142;7.768;2023-05-07T07:40:27;18.10;63.40
5868;DHT22;2960;49.142;7.768;2023-05-07T07:42:54;18.20;63.30
5868;DHT22;2960;49.142;7.768;2023-05-07T07:45:21;18.40;63.20
5868;DHT22;2960;49.142;7.768;2023-05-07T07:47:48;18.50;62.90
5868;DHT22;2960;49.142;7.768;2023-05-07T07:50:15;18.70;62.70
5868;DHT22;2960;49.142;7.768;2023-05-07T07:52:43;18.90;63.00
5868;DHT22;2960;49.142;7.768;2023-05-07T07:55:11;18.90;61.90
5868;DHT22;2960;49.142;7.768;2023-05-07T07:57:39;19.00;62.50
5868;DHT22;2960;49.142;7.768;2023-05-07T08:00:07;19.10;61.60
5868;DHT22;2960;49.142;7.768;2023-05-07T08:02:35;19.30;61.60
5868;DHT22;2960;49.142;7.768;2023-05-07T08:05:03;19.40;61.40
5868;DHT22;2960;49.142;7.768;2023-05-07T08:07:30;19.50;61.20
5868;DHT22;2960;49.142;7.768;2023-05-07T08:09:57;19.60;61.10
5868;DHT22;2960;49.142;7.768;2023-05-07T08:12:26;19.70;61.70
5868;DHT22;2960;49.142;7.768;2023-05-07T08:14:53;19.90;60.60
5868;DHT22;2960;49.142;7.768;2023-05-07T08:17:20;20.00;60.40
5868;DHT22;2960;49.142;7.768;2023-05-07T08:19:47;20.10;60.30
5868;DHT22;2960;49.142;7.768;2023-05-07T08:22:14;20.20;60.30
5868;DHT22;2960;49.142;7.768;2023-05-07T08:24:43;20.30;60.00
5868;DHT22;2960;49.142;7.768;2023-05-07T08:27:10;20.50;60.00
5868;DHT22;2960;49.142;7.768;2023-05-07T08:29:39;20.60;59.70
5868;DHT22;2960;49.142;7.768;2023-05-07T08:32:06;20.70;59.60
5868;DHT22;2960;49.142;7.768;2023-05-07T08:34:33;20.90;59.40
5868;DHT22;2960;49.142;7.768;2023-05-07T08:37:00;21.00;59.20
5868;DHT22;2960;49.142;7.768;2023-05-07T08:39:27;21.10;59.10
5868;DHT22;2960;49.142;7.768;2023-05-07T08:41:55;21.20;59.00
5868;DHT22;2960;49.142;7.768;2023-05-07T08:44:26;21.30;58.90
5868;DHT22;2960;49.142;7.768;2023-05-07T08:46:56;21.50;58.80
5868;DHT22;2960;49.142;7.768;2023-05-07T08:49:23;21.60;58.60
5868;DHT22;2960;49.142;7.768;2023-05-07T08:51:50;21.70;58.30
5868;DHT22;2960;49.142;7.768;2023-05-07T08:54:18;21.80;58.70
5868;DHT22;2960;49.142;7.768;2023-05-07T08:56:47;21.90;58.50
5868;DHT22;2960;49.142;7.768;2023-05-07T08:59:15;22.00;57.70
5868;DHT22;2960;49.142;7.768;2023-05-07T09:01:42;22.10;57.60
5868;DHT22;2960;49.142;7.768;2023-05-07T09:04:11;22.30;57.60
5868;DHT22;2960;49.142;7.768;2023-05-07T09:06:38;22.40;57.50
5868;DHT22;2960;49.142;7.768;2023-05-07T09:09:07;22.40;57.30
5868;DHT22;2960;49.142;7.768;2023-05-07T09:11:37;22.60;57.70
5868;DHT22;2960;49.142;7.768;2023-05-07T09:14:04;22.70;56.90
5868;DHT22;2960;49.142;7.768;2023-05-07T09:16:31;22.70;56.70
5868;DHT22;2960;49.142;7.768;2023-05-07T09:18:59;22.80;56.70
5868;DHT22;2960;49.142;7.768;2023-05-07T09:21:27;22.90;56.60
5868;DHT22;2960;49.142;7.768;2023-05-07T09:23:55;22.90;56.40
5868;DHT22;2960;49.142;7.768;2023-05-07T09:26:23;23.00;56.40
5868;DHT22;2960;49.142;7.768;2023-05-07T09:28:52;23.10;56.30
5868;DHT22;2960;49.142;7.768;2023-05-07T09:31:20;23.20;56.10
5868;DHT22;2960;49.142;7.768;2023-05-07T09:33:49;23.30;56.00
5868;DHT22;2960;49.142;7.768;2023-05-07T09:36:16;23.50;56.00
5868;DHT22;2960;49.142;7.768;2023-05-07T09:38:45;23.60;55.80
5868;DHT22;2960;49.142;7.768;2023-05-07T09:41:13;23.70;55.70
5868;DHT22;2960;49.142;7.768;2023-05-07T09:43:40;23.80;55.60
5868;DHT22;2960;49.142;7.768;2023-05-07T09:46:10;23.90;55.40
5868;DHT22;2960;49.142;7.768;2023-05-07T09:48:40;24.10;55.30
5868;DHT22;2960;49.142;7.768;2023-05-07T09:51:16;24.20;55.60
5868;DHT22;2960;49.142;7.768;2023-05-07T09:53:50;24.30;54.80
5868;DHT22;2960;49.142;7.768;2023-05-07T09:56:19;24.40;54.70
5868;DHT22;2960;49.142;7.768;2023-05-07T09:58:47;24.50;54.50
5868;DHT22;2960;49.142;7.768;2023-05-07T10:01:17;24.60;54.90
5868;DHT22;2960;49.142;7.768;2023-05-07T10:03:48;24.80;54.20
5868;DHT22;2960;49.142;7.768;2023-05-07T10:06:16;24.80;54.00
5868;DHT22;2960;49.142;7.768;2023-05-07T10:08:44;24.80;53.90
5868;DHT22;2960;49.142;7.768;2023-05-07T10:11:13;24.80;53.80
5868;DHT22;2960;49.142;7.768;2023-05-07T10:13:41;24.90;53.70
5868;DHT22;2960;49.142;7.768;2023-05-07T10:16:09;25.00;53.50
5868;DHT22;2960;49.142;7.768;2023-05-07T10:18:38;25.00;53.20
5868;DHT22;2960;49.142;7.768;2023-05-07T10:21:08;25.10;53.10
5868;DHT22;2960;49.142;7.768;2023-05-07T10:23:38;25.20;53.10
5868;DHT22;2960;49.142;7.768;2023-05-07T10:26:08;25.20;52.90
5868;DHT22;2960;49.142;7.768;2023-05-07T10:28:41;25.40;52.90
5868;DHT22;2960;49.142;7.768;2023-05-07T10:31:47;25.40;52.80
5868;DHT22;2960;49.142;7.768;2023-05-07T10:34:21;25.60;52.60
5868;DHT22;2960;49.142;7.768;2023-05-07T10:36:51;25.60;52.20
5868;DHT22;2960;49.142;7.768;2023-05-07T10:39:19;25.70;52.00
5868;DHT22;2960;49.142;7.768;2023-05-07T10:41:48;25.80;51.80
5868;DHT22;2960;49.142;7.768;2023-05-07T10:44:26;25.90;52.40
5868;DHT22;2960;49.142;7.768;2023-05-07T10:47:05;26.00;51.50
5868;DHT22;2960;49.142;7.768;2023-05-07T10:49:35;26.10;51.40
5868;DHT22;2960;49.142;7.768;2023-05-07T10:52:13;26.10;51.30
5868;DHT22;2960;49.142;7.768;2023-05-07T10:54:41;26.20;51.00
5868;DHT22;2960;49.142;7.768;2023-05-07T10:57:32;26.20;50.90
5868;DHT22;2960;49.142;7.768;2023-05-07T11:00:02;26.30;51.00
5868;DHT22;2960;49.142;7.768;2023-05-07T11:03:04;26.20;50.90
5868;DHT22;2960;49.142;7.768;2023-05-07T11:05:33;26.30;51.00
5868;DHT22;2960;49.142;7.768;2023-05-07T11:08:04;26.20;51.00
5868;DHT22;2960;49.142;7.768;2023-05-07T11:10:51;26.20;50.90
5868;DHT22;2960;49.142;7.768;2023-05-07T11:13:41;26.20;50.80
5868;DHT22;2960;49.142;7.768;2023-05-07T11:16:19;26.20;50.80
5868;DHT22;2960;49.142;7.768;2023-05-07T11:18:47;26.10;50.70
5868;DHT22;2960;49.142;7.768;2023-05-07T11:21:36;26.10;50.60
5868;DHT22;2960;49.142;7.768;2023-05-07T11:24:06;26.10;50.40
5868;DHT22;2960;49.142;7.768;2023-05-07T11:26:47;26.00;50.20
5868;DHT22;2960;49.142;7.768;2023-05-07T11:29:17;25.90;50.20
5868;DHT22;2960;49.142;7.768;2023-05-07T11:31:49;25.90;50.30
5868;DHT22;2960;49.142;7.768;2023-05-07T11:34:21;25.80;50.30
5868;DHT22;2960;49.142;7.768;2023-05-07T11:36:50;25.80;50.30
5868;DHT22;2960;49.142;7.768;2023-05-07T11:39:24;25.70;50.20
5868;DHT22;2960;49.142;7.768;2023-05-07T11:41:54;25.70;50.20
5868;DHT22;2960;49.142;7.768;2023-05-07T11:44:22;25.70;50.20
5868;DHT22;2960;49.142;7.768;2023-05-07T11:46:50;25.70;50.30
5868;DHT22;2960;49.142;7.768;2023-05-07T11:49:18;25.70;50.30
5868;DHT22;2960;49.142;7.768;2023-05-07T11:51:46;25.60;50.20
5868;DHT22;2960;49.142;7.768;2023-05-07T11:54:16;25.60;50.10
5868;DHT22;2960;49.142;7.768;2023-05-07T11:56:44;25.60;50.10
5868;DHT22;2960;49.142;7.768;2023-05-07T11:59:17;25.60;50.10
5868;DHT22;2960;49.142;7.768;2023-05-07T12:01:46;25.50;50.10
5868;DHT22;2960;49.142;7.768;2023-05-07T12:04:19;25.50;50.10
5868;DHT22;2960;49.142;7.768;2023-05-07T12:06:47;25.50;50.20
5868;DHT22;2960;49.142;7.768;2023-05-07T12:09:16;25.40;50.20
5868;DHT22;2960;49.142;7.768;2023-05-07T12:11:46;25.30;50.30
5868;DHT22;2960;49.142;7.768;2023-05-07T12:14:13;25.20;50.40
5868;DHT22;2960;49.142;7.768;2023-05-07T12:16:41;25.20;50.60
5868;DHT22;2960;49.142;7.768;2023-05-07T12:19:09;25.10;50.70
5868;DHT22;2960;49.142;7.768;2023-05-07T12:21:39;25.00;50.70
5868;DHT22;2960;49.142;7.768;2023-05-07T12:24:08;25.00;50.90
5868;DHT22;2960;49.142;7.768;2023-05-07T12:26:37;24.90;51.00
5868;DHT22;2960;49.142;7.768;2023-05-07T12:29:06;24.90;51.10
5868;DHT22;2960;49.142;7.768;2023-05-07T12:31:33;24.90;51.20
5868;DHT22;2960;49.142;7.768;2023-05-07T12:34:03;24.80;51.10
5868;DHT22;2960;49.142;7.768;2023-05-07T12:36:36;24.80;51.10
5868;DHT22;2960;49.142;7.768;2023-05-07T12:39:05;24.80;51.20
5868;DHT22;2960;49.142;7.768;2023-05-07T12:41:36;24.80;51.20
5868;DHT22;2960;49.142;7.768;2023-05-07T12:44:22;24.80;51.30
5868;DHT22;2960;49.142;7.768;2023-05-07T12:46:50;24.80;51.30
5868;DHT22;2960;49.142;7.768;2023-05-07T12:49:17;24.70;51.20
5868;DHT22;2960;49.142;7.768;2023-05-07T12:51:46;24.70;51.30
5868;DHT22;2960;49.142;7.768;2023-05-07T12:54:14;24.70;51.40
5868;DHT22;2960;49.142;7.768;2023-05-07T12:57:00;24.60;51.30
5868;DHT22;2960;49.142;7.768;2023-05-07T12:59:33;24.60;51.30
5868;DHT22;2960;49.142;7.768;2023-05-07T13:02:00;24.60;51.40
5868;DHT22;2960;49.142;7.768;2023-05-07T13:04:27;24.60;51.40
5868;DHT22;2960;49.142;7.768;2023-05-07T13:06:56;24.50;51.40
5868;DHT22;2960;49.142;7.768;2023-05-07T13:09:23;24.50;51.60
5868;DHT22;2960;49.142;7.768;2023-05-07T13:11:50;24.40;52.00
5868;DHT22;2960;49.142;7.768;2023-05-07T13:14:17;24.20;52.50
5868;DHT22;2960;49.142;7.768;2023-05-07T13:16:46;24.10;53.00
5868;DHT22;2960;49.142;7.768;2023-05-07T13:19:14;24.00;53.50
5868;DHT22;2960;49.142;7.768;2023-05-07T13:21:43;24.00;53.90
5868;DHT22;2960;49.142;7.768;2023-05-07T13:24:12;24.00;54.80
5868;DHT22;2960;49.142;7.768;2023-05-07T13:26:39;24.00;54.40
5868;DHT22;2960;49.142;7.768;2023-05-07T13:29:07;24.00;54.40
5868;DHT22;2960;49.142;7.768;2023-05-07T13:31:37;24.10;54.40
5868;DHT22;2960;49.142;7.768;2023-05-07T13:34:08;24.10;54.40
5868;DHT22;2960;49.142;7.768;2023-05-07T13:36:35;24.20;54.40
5868;DHT22;2960;49.142;7.768;2023-05-07T13:39:02;24.20;54.40
5868;DHT22;2960;49.142;7.768;2023-05-07T13:41:31;24.20;54.40
5868;DHT22;2960;49.142;7.768;2023-05-07T13:43:58;24.20;54.40
5868;DHT22;2960;49.142;7.768;2023-05-07T13:46:25;24.20;54.40
5868;DHT22;2960;49.142;7.768;2023-05-07T13:48:52;24.20;55.00
5868;DHT22;2960;49.142;7.768;2023-05-07T13:51:20;24.20;54.50
5868;DHT22;2960;49.142;7.768;2023-05-07T13:53:47;24.20;54.50
5868;DHT22;2960;49.142;7.768;2023-05-07T13:56:14;24.20;54.60
5868;DHT22;2960;49.142;7.768;2023-05-07T13:58:43;24.10;54.60
5868;DHT22;2960;49.142;7.768;2023-05-07T14:01:10;24.20;54.60
5868;DHT22;2960;49.142;7.768;2023-05-07T14:03:37;24.10;54.50
5868;DHT22;2960;49.142;7.768;2023-05-07T14:06:05;24.10;54.40
5868;DHT22;2960;49.142;7.768;2023-05-07T14:08:32;24.10;54.40
5868;DHT22;2960;49.142;7.768;2023-05-07T14:10:59;24.10;54.50
5868;DHT22;2960;49.142;7.768;2023-05-07T14:13:26;24.10;55.10
5868;DHT22;2960;49.142;7.768;2023-05-07T14:15:57;24.00;54.40
5868;DHT22;2960;49.142;7.768;2023-05-07T14:18:24;24.00;54.50
5868;DHT22;2960;49.142;7.768;2023-05-07T14:20:51;23.90;54.60
5868;DHT22;2960;49.142;7.768;2023-05-07T14:23:18;23.80;54.90
5868;DHT22;2960;49.142;7.768;2023-05-07T14:25:51;23.70;55.30
5868;DHT22;2960;49.142;7.768;2023-05-07T14:28:18;23.50;55.60
5868;DHT22;2960;49.142;7.768;2023-05-07T14:30:46;23.40;56.00
5868;DHT22;2960;49.142;7.768;2023-05-07T14:33:15;23.40;56.30
5868;DHT22;2960;49.142;7.768;2023-05-07T14:35:42;23.30;56.60
5868;DHT22;2960;49.142;7.768;2023-05-07T14:38:14;23.20;56.70
5868;DHT22;2960;49.142;7.768;2023-05-07T14:40:41;23.20;56.90
5868;DHT22;2960;49.142;7.768;2023-05-07T14:43:08;23.20;57.50
5868;DHT22;2960;49.142;7.768;2023-05-07T14:45:35;23.20;56.90
5868;DHT22;2960;49.142;7.768;2023-05-07T14:48:03;23.30;56.90
5868;DHT22;2960;49.142;7.768;2023-05-07T14:50:32;23.30;56.90
5868;DHT22;2960;49.142;7.768;2023-05-07T14:52:59;23.30;56.80
5868;DHT22;2960;49.142;7.768;2023-05-07T14:55:26;23.40;56.80
5868;DHT22;2960;49.142;7.768;2023-05-07T14:57:53;23.40;56.70
5868;DHT22;2960;49.142;7.768;2023-05-07T15:00:20;23.40;56.60
5868;DHT22;2960;49.142;7.768;2023-05-07T15:02:47;23.50;56.70
5868;DHT22;2960;49.142;7.768;2023-05-07T15:05:15;23.40;56.60
5868;DHT22;2960;49.142;7.768;2023-05-07T15:07:45;23.50;56.70
5868;DHT22;2960;49.142;7.768;2023-05-07T15:10:12;23.50;56.80
5868;DHT22;2960;49.142;7.768;2023-05-07T15:12:39;23.50;56.80
5868;DHT22;2960;49.142;7.768;2023-05-07T15:15:07;23.50;56.90
5868;DHT22;2960;49.142;7.768;2023-05-07T15:17:35;23.50;56.90
5868;DHT22;2960;49.142;7.768;2023-05-07T15:20:03;23.50;57.00
5868;DHT22;2960;49.142;7.768;2023-05-07T15:22:31;23.50;57.10
5868;DHT22;2960;49.142;7.768;2023-05-07T15:24:59;23.50;57.10
5868;DHT22;2960;49.142;7.768;2023-05-07T15:27:26;23.50;57.70
5868;DHT22;2960;49.142;7.768;2023-05-07T15:29:53;23.50;57.10
5868;DHT22;2960;49.142;7.768;2023-05-07T15:32:21;23.50;57.10
5868;DHT22;2960;49.142;7.768;2023-05-07T15:34:48;23.50;57.20
5868;DHT22;2960;49.142;7.768;2023-05-07T15:37:15;23.50;57.10
5868;DHT22;2960;49.142;7.768;2023-05-07T15:39:42;23.40;57.10
5868;DHT22;2960;49.142;7.768;2023-05-07T15:42:10;23.40;57.20
5868;DHT22;2960;49.142;7.768;2023-05-07T15:44:37;23.30;57.90
5868;DHT22;2960;49.142;7.768;2023-05-07T15:47:05;23.30;57.50
5868;DHT22;2960;49.142;7.768;2023-05-07T15:49:32;23.30;57.70
5868;DHT22;2960;49.142;7.768;2023-05-07T15:51:59;23.20;57.60
5868;DHT22;2960;49.142;7.768;2023-05-07T15:54:26;23.20;57.70
5868;DHT22;2960;49.142;7.768;2023-05-07T15:56:53;23.20;57.70
5868;DHT22;2960;49.142;7.768;2023-05-07T15:59:22;23.20;57.80
5868;DHT22;2960;49.142;7.768;2023-05-07T16:01:49;23.20;57.90
5868;DHT22;2960;49.142;7.768;2023-05-07T16:04:16;23.20;57.90
5868;DHT22;2960;49.142;7.768;2023-05-07T16:06:44;23.10;57.90
5868;DHT22;2960;49.142;7.768;2023-05-07T16:09:12;23.10;58.00
5868;DHT22;2960;49.142;7.768;2023-05-07T16:11:39;23.10;58.10